Time;durP1;ratioP1;P1;durP2;ratioP2;P2;SDS_P1;SDS_P2;PMS_P1;PMS_P2;Temp;Humidity;BMP_temperature;BMP_pressure;BME280_temperature;BME280_humidity;BME280_pressure;Samples;Min_cycle;Max_cycle;Signal;HPM_P1;HPM_P2
2021/06/16 00:00:01;;;;;;;;;;;;;;;20.26;93.33;100797.47;1741822;82;21215;-76
2021/06/16 00:02:36;;;;;;;14.00;9.20;;;;;;;20.27;93.72;100802.80;1736650;82;20320;-77
2021/06/16 00:05:11;;;;;;;17.73;8.55;;;;;;;20.30;94.05;100798.50;1739376;82;21255;-76
2021/06/16 00:07:44;;;;;;;14.87;7.22;;;;;;;20.28;93.92;100803.61;1739199;81;21262;-75
2021/06/16 00:10:18;;;;;;;10.25;6.50;;;;;;;20.27;94.07;100804.20;1739567;81;21839;-75
2021/06/16 00:12:51;;;;;;;14.45;7.25;;;;;;;20.31;93.98;100805.80;1739536;82;21203;-75
2021/06/16 00:15:27;;;;;;;15.25;6.80;;;;;;;20.34;93.93;100810.78;1739393;82;21549;-76
2021/06/16 00:18:00;;;;;;;13.30;8.08;;;;;;;20.42;93.64;100815.66;1739267;82;21215;-77
2021/06/16 00:20:33;;;;;;;14.40;7.08;;;;;;;20.45;93.30;100811.62;1739366;81;21211;-78
2021/06/16 00:23:07;;;;;;;18.52;7.22;;;;;;;20.47;92.72;100809.89;1739303;82;21195;-73
2021/06/16 00:25:40;;;;;;;21.00;6.08;;;;;;;20.49;92.74;100804.75;1737812;82;21234;-75
2021/06/16 00:28:13;;;;;;;11.95;7.40;;;;;;;20.53;92.49;100809.41;1739321;82;21194;-77
2021/06/16 00:30:47;;;;;;;9.73;6.90;;;;;;;20.58;92.25;100808.44;1739309;82;21206;-76
2021/06/16 00:33:22;;;;;;;15.32;6.72;;;;;;;20.57;92.01;100804.80;1736876;82;21241;-74
2021/06/16 00:35:54;;;;;;;21.83;6.80;;;;;;;20.57;91.71;100806.77;1742958;82;21196;-74
2021/06/16 00:38:28;;;;;;;22.05;6.87;;;;;;;20.52;91.51;100795.62;1742237;82;21528;-74
2021/06/16 00:41:01;;;;;;;11.53;7.37;;;;;;;20.56;91.55;100800.88;1742132;82;21727;-77
2021/06/16 00:43:35;;;;;;;12.90;8.25;;;;;;;20.60;91.49;100796.27;1742358;82;22073;-77
2021/06/16 00:46:08;;;;;;;21.07;8.53;;;;;;;20.64;91.29;100796.70;1742673;82;21778;-77
2021/06/16 00:48:41;;;;;;;13.13;7.55;;;;;;;20.65;90.88;100813.03;1742076;82;21197;-75
2021/06/16 00:51:14;;;;;;;11.95;7.92;;;;;;;20.56;90.26;100811.60;1742198;82;21261;-75
2021/06/16 00:53:47;;;;;;;14.98;10.10;;;;;;;20.47;90.17;100811.30;1742187;82;21735;-76
2021/06/16 00:56:20;;;;;;;16.37;9.65;;;;;;;20.41;90.61;100809.17;1742142;82;21627;-76
2021/06/16 00:58:53;;;;;;;19.07;8.18;;;;;;;20.43;90.76;100818.73;1741236;82;21706;-78
2021/06/16 01:01:28;;;;;;;15.48;8.03;;;;;;;20.42;90.81;100814.25;1741026;82;23691;-78
2021/06/16 01:04:22;;;;;;;16.62;9.43;;;;;;;20.43;90.95;100807.45;1740726;82;21201;-76
2021/06/16 01:07:10;;;;;;;14.98;9.63;;;;;;;20.41;91.03;100811.19;1740840;82;21205;-76
2021/06/16 01:09:50;;;;;;;14.93;8.90;;;;;;;20.39;90.92;100793.72;1740918;82;21755;-76
2021/06/16 01:13:03;;;;;;;16.52;8.80;;;;;;;20.34;90.90;100805.14;1740950;82;21239;-79
2021/06/16 01:15:49;;;;;;;19.70;10.58;;;;;;;20.30;91.08;100808.37;1740740;82;21182;-78
2021/06/16 01:18:23;;;;;;;15.25;11.60;;;;;;;20.31;91.39;100812.85;1740799;82;21190;-78
2021/06/16 01:20:57;;;;;;;21.25;12.20;;;;;;;20.34;91.54;100810.22;1740952;82;21846;-77
2021/06/16 01:23:49;;;;;;;21.45;11.63;;;;;;;20.34;91.49;100810.78;1740799;82;21703;-78
2021/06/16 01:26:27;;;;;;;25.88;11.83;;;;;;;20.29;91.44;100817.39;1740943;82;21680;-78
2021/06/16 01:29:04;;;;;;;17.25;9.55;;;;;;;20.22;91.63;100812.80;1740711;82;21252;-79
2021/06/16 01:31:37;;;;;;;23.10;11.60;;;;;;;20.16;91.83;100818.30;1714787;82;21355;-79
2021/06/16 01:34:11;;;;;;;23.77;10.80;;;;;;;20.16;92.05;100813.23;1741011;82;21264;-78
2021/06/16 01:36:47;;;;;;;21.87;10.68;;;;;;;20.14;91.99;100808.50;1742807;82;21325;-78
2021/06/16 01:39:22;;;;;;;17.90;9.05;;;;;;;20.08;92.01;100816.27;1742512;82;21252;-79
2021/06/16 01:41:56;;;;;;;16.50;7.65;;;;;;;20.04;92.02;100810.12;1742556;82;21679;-79
2021/06/16 01:44:28;;;;;;;15.05;7.95;;;;;;;20.00;92.12;100807.70;1715968;82;21335;-79
2021/06/16 01:47:01;;;;;;;18.55;8.13;;;;;;;19.95;92.07;100807.83;1742532;82;21737;-77
2021/06/16 01:49:33;;;;;;;14.97;7.57;;;;;;;19.89;92.24;100814.74;1742801;82;21810;-78
2021/06/16 01:52:06;;;;;;;18.32;6.85;;;;;;;19.85;92.21;100814.55;1742681;82;21324;-77
2021/06/16 01:54:39;;;;;;;25.10;7.17;;;;;;;19.81;91.94;100821.15;1742586;82;21189;-78
2021/06/16 01:57:12;;;;;;;17.32;6.62;;;;;;;19.76;92.01;100813.63;1716020;82;21814;-77
2021/06/16 01:59:46;;;;;;;12.43;6.30;;;;;;;19.76;92.04;100815.03;1742579;82;21241;-77
2021/06/16 02:02:18;;;;;;;19.50;6.30;;;;;;;19.79;92.33;100809.34;1741952;82;21671;-74
2021/06/16 02:04:51;;;;;;;11.78;5.70;;;;;;;19.80;92.29;100806.80;1741480;82;21237;-74
2021/06/16 02:07:31;;;;;;;9.20;5.23;;;;;;;19.83;92.36;100816.02;1742657;82;21272;-74
2021/06/16 02:10:03;;;;;;;12.00;4.80;;;;;;;19.86;92.24;100822.41;1742685;82;21205;-75
2021/06/16 02:12:40;;;;;;;9.53;4.75;;;;;;;19.88;91.81;100821.53;1742900;82;21182;-76
2021/06/16 02:15:15;;;;;;;8.43;4.10;;;;;;;19.87;91.35;100829.15;1742473;82;21829;-77
2021/06/16 02:17:53;;;;;;;10.70;4.00;;;;;;;19.87;90.66;100828.33;1742422;82;21204;-76
2021/06/16 02:20:26;;;;;;;9.63;4.45;;;;;;;19.85;90.19;100834.84;1742345;82;21394;-76
2021/06/16 02:22:58;;;;;;;9.73;4.35;;;;;;;19.79;89.96;100836.97;1739389;82;21245;-75
2021/06/16 02:25:33;;;;;;;9.53;3.80;;;;;;;19.75;90.09;100835.11;1742490;82;21873;-75
2021/06/16 02:28:05;;;;;;;11.00;4.05;;;;;;;19.73;90.28;100831.19;1712839;84;21343;-76
2021/06/16 02:30:38;;;;;;;9.10;3.95;;;;;;;19.79;90.24;100838.94;1740282;82;21285;-74
2021/06/16 02:33:10;;;;;;;9.40;4.15;;;;;;;19.83;90.04;100841.39;1740987;82;21201;-76
2021/06/16 02:35:43;;;;;;;24.80;5.42;;;;;;;19.81;89.67;100838.06;1740770;82;21193;-76
2021/06/16 02:38:22;;;;;;;10.30;5.17;;;;;;;19.78;89.32;100840.94;1742627;82;21327;-75
2021/06/16 02:40:55;;;;;;;9.20;3.75;;;;;;;19.75;89.20;100848.60;1742249;82;21327;-73
2021/06/16 02:43:27;;;;;;;7.50;3.80;;;;;;;19.69;89.20;100847.05;1742663;82;21719;-82
2021/06/16 02:46:00;;;;;;;9.40;4.67;;;;;;;19.65;89.22;100846.60;1742978;82;21244;-80
2021/06/16 02:48:33;;;;;;;8.58;5.33;;;;;;;19.61;89.28;100845.56;1742676;82;21715;-78
2021/06/16 02:51:06;;;;;;;15.80;6.10;;;;;;;19.60;89.52;100849.53;1741780;82;21196;-80
2021/06/16 02:53:41;;;;;;;20.52;4.75;;;;;;;19.60;89.70;100843.89;1723781;82;21318;-81
2021/06/16 02:56:14;;;;;;;9.93;5.53;;;;;;;19.59;89.71;100842.23;1741221;82;21205;-76
2021/06/16 02:58:48;;;;;;;13.72;5.37;;;;;;;19.57;89.65;100841.73;1714927;82;21325;-78
2021/06/16 03:01:21;;;;;;;16.48;6.33;;;;;;;19.57;89.93;100829.05;1740787;82;21798;-74
2021/06/16 03:03:54;;;;;;;16.70;6.42;;;;;;;19.62;90.03;100830.34;1740967;82;21182;-81
2021/06/16 03:06:27;;;;;;;16.02;6.03;;;;;;;19.67;90.37;100829.64;1745074;82;21374;-75
2021/06/16 03:09:00;;;;;;;14.53;5.95;;;;;;;19.75;90.65;100836.52;1733249;82;21352;-72
2021/06/16 03:11:34;;;;;;;9.10;5.62;;;;;;;19.82;90.60;100833.49;1745051;82;21412;-73
2021/06/16 03:14:06;;;;;;;;;;;;;;;19.87;90.57;100838.20;1741247;82;21344;-77
2021/06/16 03:16:39;;;;;;;18.10;7.78;;;;;;;19.91;90.73;100842.03;1745598;82;20205;-77
2021/06/16 03:19:12;;;;;;;16.05;7.53;;;;;;;19.96;90.62;100839.09;1745738;82;21336;-74
2021/06/16 03:21:45;;;;;;;14.63;7.25;;;;;;;19.99;90.32;100837.06;1746635;82;21236;-73
2021/06/16 03:24:19;;;;;;;14.65;7.53;;;;;;;20.05;90.03;100842.83;1747181;82;21264;-76
2021/06/16 03:26:52;;;;;;;16.50;8.18;;;;;;;20.06;89.98;100835.47;1747137;82;21166;-77
2021/06/16 03:29:27;;;;;;;14.35;7.97;;;;;;;20.07;89.98;100837.73;1742456;82;21360;-75
2021/06/16 03:32:00;;;;;;;11.70;7.67;;;;;;;20.07;89.99;100832.94;1746208;81;21363;-73
2021/06/16 03:34:38;;;;;;;16.50;7.00;;;;;;;20.09;89.81;100826.39;1744492;82;21391;-67
2021/06/16 03:37:11;;;;;;;16.40;7.25;;;;;;;20.07;89.77;100826.45;1742194;82;21332;-67
2021/06/16 03:39:43;;;;;;;11.00;7.28;;;;;;;20.06;89.92;100826.20;1741260;82;21392;-72
2021/06/16 03:42:16;;;;;;;17.27;8.50;;;;;;;20.07;90.05;100833.50;1741201;82;21849;-69
2021/06/16 03:44:49;;;;;;;18.77;7.25;;;;;;;20.07;90.02;100832.09;1741228;82;21198;-72
2021/06/16 03:47:23;;;;;;;16.50;7.85;;;;;;;20.06;89.91;100834.66;1741249;82;21224;-71
2021/06/16 03:49:55;;;;;;;;;;;;;;;20.07;89.91;100833.50;1745029;82;21182;-70
2021/06/16 03:52:27;;;;;;;15.72;7.58;;;;;;;20.09;89.75;100839.08;1742475;82;20609;-70
2021/06/16 03:55:00;;;;;;;14.35;8.15;;;;;;;20.07;89.40;100839.98;1741548;82;21259;-74
2021/06/16 03:57:33;;;;;;;17.30;8.50;;;;;;;20.14;89.47;100840.92;1741453;82;21221;-73
2021/06/16 04:00:08;;;;;;;14.23;7.75;;;;;;;20.20;89.08;100846.70;1742301;82;21205;-68
2021/06/16 04:02:42;;;;;;;20.75;8.28;;;;;;;20.18;88.49;100853.25;1740644;82;21862;-72
2021/06/16 04:05:16;;;;;;;15.38;6.80;;;;;;;20.13;88.23;100851.95;1743262;82;21244;-70
2021/06/16 04:07:52;;;;;;;14.07;8.35;;;;;;;20.08;88.24;100853.48;1743877;82;21332;-71
2021/06/16 04:10:26;;;;;;;15.85;8.15;;;;;;;20.07;88.35;100854.64;1743936;82;21201;-75
2021/06/16 04:12:59;;;;;;;22.05;8.03;;;;;;;20.08;88.33;100860.53;1742509;82;21403;-73
2021/06/16 04:15:32;;;;;;;9.30;7.08;;;;;;;20.09;88.05;100867.84;1738748;82;21187;-69
2021/06/16 04:18:07;;;;;;;15.90;7.65;;;;;;;20.06;87.71;100863.67;1737823;82;21225;-72
2021/06/16 04:20:40;;;;;;;13.68;7.37;;;;;;;19.99;87.58;100868.07;1737890;82;21230;-72
2021/06/16 04:23:15;;;;;;;13.48;8.48;;;;;;;19.90;87.98;100862.36;1737536;82;21400;-75
2021/06/16 04:25:47;;;;;;;18.65;9.68;;;;;;;19.85;88.29;100859.65;1737874;82;21265;-74
2021/06/16 04:28:20;;;;;;;18.10;11.80;;;;;;;19.90;88.59;100867.14;1738650;82;21273;-73
2021/06/16 04:30:52;;;;;;;18.67;10.70;;;;;;;19.83;88.34;100858.30;1737768;82;21190;-69
2021/06/16 04:33:25;;;;;;;14.78;9.08;;;;;;;19.83;88.34;100858.30;1737762;82;21201;-72
2021/06/16 04:36:00;;;;;;;16.93;10.38;;;;;;;19.82;88.69;100865.09;1737641;82;21211;-72
2021/06/16 04:38:32;;;;;;;12.93;9.35;;;;;;;19.83;88.96;100873.80;1717205;82;21400;-73
2021/06/16 04:41:05;;;;;;;23.07;10.47;;;;;;;19.85;89.47;100872.34;1738084;82;21680;-70
2021/06/16 04:43:38;;;;;;;20.72;11.22;;;;;;;19.84;89.63;100872.64;1737879;82;21218;-73
2021/06/16 04:46:10;;;;;;;17.07;10.70;;;;;;;19.84;89.72;100876.88;1737541;82;21187;-74
2021/06/16 04:48:44;;;;;;;18.42;12.40;;;;;;;19.84;89.79;100881.95;1739047;82;21198;-69
2021/06/16 04:51:17;;;;;;;16.02;8.65;;;;;;;19.85;89.76;100885.02;1737540;82;21228;-73
2021/06/16 04:53:49;;;;;;;18.52;10.53;;;;;;;19.82;89.83;100887.05;1737592;82;21353;-71
2021/06/16 04:56:22;;;;;;;24.73;11.73;;;;;;;19.76;89.83;100888.31;1737776;82;21341;-69
2021/06/16 04:58:54;;;;;;;14.97;10.87;;;;;;;19.74;89.82;100893.45;1738075;82;21235;-68
2021/06/16 05:01:27;;;;;;;17.77;10.35;;;;;;;19.69;90.02;100897.78;1737991;82;21682;-73
2021/06/16 05:04:01;;;;;;;19.45;11.15;;;;;;;19.69;90.13;100896.97;1711277;84;21201;-69
2021/06/16 05:06:33;;;;;;;16.80;10.68;;;;;;;19.64;90.08;100902.11;1711195;84;21500;-74
2021/06/16 05:09:06;;;;;;;21.90;12.35;;;;;;;19.64;90.40;100901.30;1711269;84;21353;-73
2021/06/16 05:11:38;;;;;;;21.03;12.90;;;;;;;19.62;90.74;100907.23;1711500;84;21213;-70
2021/06/16 05:14:11;;;;;;;18.92;11.95;;;;;;;19.64;90.68;100902.70;1711271;84;21332;-71
2021/06/16 05:16:43;;;;;;;26.50;12.63;;;;;;;19.65;90.58;100913.67;1711605;84;21403;-70
2021/06/16 05:19:19;;;;;;;13.55;10.68;;;;;;;19.65;90.62;100905.22;1711397;84;21419;-66
2021/06/16 05:21:50;;;;;;;14.55;11.45;;;;;;;19.68;90.81;100916.44;1711547;84;21198;-77
2021/06/16 05:27:07;;;;;;;18.82;12.05;;;;;;;19.71;90.94;100915.23;1852001;76;25250;-73
2021/06/16 05:29:39;;;;;;;;;;;;;;;19.65;91.24;100918.46;1748796;81;21166;-70
2021/06/16 05:32:12;;;;;;;15.60;9.38;;;;;;;19.63;91.33;100926.41;1736571;82;20184;-73
2021/06/16 05:34:44;;;;;;;19.57;10.50;;;;;;;19.57;91.72;100926.25;1746067;82;21362;-69
2021/06/16 05:37:17;;;;;;;14.55;9.93;;;;;;;19.59;92.17;100925.35;1745619;81;21206;-75
2021/06/16 05:39:50;;;;;;;19.73;11.80;;;;;;;19.67;92.45;100933.06;1745954;82;21187;-74
2021/06/16 05:42:22;;;;;;;19.35;12.33;;;;;;;19.69;92.53;100926.55;1745789;82;21892;-72
2021/06/16 05:44:55;;;;;;;15.98;9.45;;;;;;;19.77;92.58;100935.66;1745805;82;21336;-68
2021/06/16 05:47:27;;;;;;;24.43;10.18;;;;;;;19.80;92.15;100936.46;1745864;82;21352;-72
2021/06/16 05:50:01;;;;;;;16.12;9.50;;;;;;;19.78;92.14;100938.73;1745670;82;21921;-71
2021/06/16 05:52:33;;;;;;;10.88;8.45;;;;;;;19.85;92.35;100939.98;1745681;82;21336;-69
2021/06/16 05:55:07;;;;;;;13.62;8.90;;;;;;;19.93;92.60;100934.19;1745612;82;21380;-72
2021/06/16 05:57:40;;;;;;;14.03;9.08;;;;;;;20.02;92.50;100942.14;1745608;82;21431;-69
2021/06/16 06:00:14;;;;;;;15.28;7.85;;;;;;;20.07;92.25;100942.91;1745899;82;21416;-73
2021/06/16 06:02:48;;;;;;;13.58;6.60;;;;;;;20.13;91.58;100941.64;1745791;82;21337;-70
2021/06/16 06:05:20;;;;;;;16.37;7.30;;;;;;;20.19;91.45;100953.62;1745911;81;21238;-72
2021/06/16 06:07:53;;;;;;;13.55;5.83;;;;;;;20.31;91.20;100953.89;1745714;82;21851;-67
2021/06/16 06:10:26;;;;;;;9.27;5.20;;;;;;;20.43;90.27;100960.62;1746042;82;21249;-75
2021/06/16 06:12:59;;;;;;;7.40;4.92;;;;;;;20.50;89.77;100946.94;1745928;82;21569;-75
2021/06/16 06:15:31;;;;;;;9.85;4.60;;;;;;;20.59;88.73;100962.50;1745483;82;21250;-73
2021/06/16 06:18:04;;;;;;;11.08;4.25;;;;;;;20.54;87.56;100962.65;1745681;82;21832;-75
2021/06/16 06:20:37;;;;;;;10.95;4.90;;;;;;;20.53;87.46;100958.13;1746041;82;21174;-76
2021/06/16 06:23:09;;;;;;;12.13;4.72;;;;;;;20.50;87.33;100964.43;1745780;82;21680;-74
2021/06/16 06:25:42;;;;;;;10.03;3.67;;;;;;;20.50;87.23;100963.02;1745729;82;21369;-68
2021/06/16 06:28:16;;;;;;;10.98;5.47;;;;;;;20.53;86.77;100958.98;1720832;82;21207;-75
2021/06/16 06:30:49;;;;;;;8.30;4.47;;;;;;;20.59;86.59;100954.03;1720951;83;21346;-69
2021/06/16 06:33:21;;;;;;;10.37;4.30;;;;;;;20.73;86.58;100949.17;1721181;83;21227;-71
2021/06/16 06:35:54;;;;;;;5.30;2.98;;;;;;;20.87;86.22;100959.80;1721180;82;21338;-74
2021/06/16 06:38:27;;;;;;;11.03;3.40;;;;;;;20.94;84.80;100960.20;1720566;83;21219;-67
2021/06/16 06:40:59;;;;;;;11.65;3.27;;;;;;;20.93;84.26;100959.95;1720627;83;21271;-70
2021/06/16 06:43:33;;;;;;;6.33;3.15;;;;;;;20.83;83.29;100961.59;1720576;83;21211;-71
2021/06/16 06:46:06;;;;;;;4.03;3.10;;;;;;;20.74;83.34;100962.13;1720535;83;21211;-71
2021/06/16 06:48:39;;;;;;;5.87;2.83;;;;;;;20.65;82.63;100967.70;1720921;83;21346;-72
2021/06/16 06:51:12;;;;;;;3.60;2.42;;;;;;;20.56;82.70;100974.44;1720702;83;21231;-75
2021/06/16 06:53:44;;;;;;;8.43;3.15;;;;;;;20.43;82.49;100969.09;1726622;83;21830;-68
2021/06/16 06:56:17;;;;;;;7.08;3.52;;;;;;;20.33;83.03;100971.33;1768800;80;21317;-67
2021/06/16 06:58:50;;;;;;;;;;;;;;;20.28;83.88;100970.03;1771137;80;21207;-77
2021/06/16 07:01:23;;;;;;;5.28;3.35;;;;;;;20.32;84.96;100962.61;1769565;80;20622;-74
2021/06/16 07:04:00;;;;;;;9.15;3.72;;;;;;;20.30;85.14;100971.98;1770406;80;21735;-78
2021/06/16 07:06:32;;;;;;;4.65;2.75;;;;;;;20.23;85.12;100966.77;1771506;80;21786;-69
2021/06/16 07:09:05;;;;;;;8.50;2.70;;;;;;;20.22;84.98;100972.72;1772157;79;21746;-72
2021/06/16 07:11:38;;;;;;;3.25;2.30;;;;;;;20.15;84.97;100963.30;1770744;80;21424;-77
2021/06/16 07:14:10;;;;;;;8.45;2.95;;;;;;;20.13;85.33;100959.13;1769614;81;21289;-76
2021/06/16 07:16:43;;;;;;;8.28;4.10;;;;;;;20.21;85.49;100962.59;1769571;81;21226;-70
2021/06/16 07:19:16;;;;;;;7.47;3.47;;;;;;;20.29;85.32;100954.20;1772009;80;21452;-74
2021/06/16 07:21:49;;;;;;;6.25;3.20;;;;;;;20.36;84.95;100946.73;1771689;80;21344;-68
2021/06/16 07:24:21;;;;;;;6.22;3.50;;;;;;;20.45;85.22;100949.88;1771009;80;21371;-75
2021/06/16 07:26:55;;;;;;;7.80;4.42;;;;;;;20.60;85.46;100940.20;1772943;80;21179;-74
2021/06/16 07:29:28;;;;;;;8.45;3.95;;;;;;;20.78;85.65;100941.39;1770595;80;21820;-77
2021/06/16 07:32:01;;;;;;;7.53;4.17;;;;;;;20.96;85.59;100946.03;1769937;81;21321;-73
2021/06/16 07:34:34;;;;;;;7.12;3.72;;;;;;;21.09;84.19;100944.28;1771140;81;21333;-75
2021/06/16 07:37:06;;;;;;;12.13;3.97;;;;;;;21.14;83.52;100946.94;1771567;80;21234;-74
2021/06/16 07:39:39;;;;;;;9.95;3.95;;;;;;;21.20;83.09;100949.88;1771468;79;22098;-73
2021/06/16 07:42:13;;;;;;;10.57;4.30;;;;;;;21.33;82.87;100953.22;1771967;81;21321;-76
2021/06/16 07:44:46;;;;;;;8.23;3.98;;;;;;;21.50;81.96;100956.09;1771640;80;21380;-72
2021/06/16 07:47:18;;;;;;;10.37;4.10;;;;;;;21.67;81.24;100954.77;1771503;79;21309;-69
2021/06/16 07:49:53;;;;;;;9.48;3.92;;;;;;;21.85;80.68;100955.08;1771848;80;21337;-70
2021/06/16 07:52:27;;;;;;;12.37;4.62;;;;;;;22.00;78.81;100954.63;1771812;81;21450;-74
2021/06/16 07:55:00;;;;;;;7.42;4.53;;;;;;;22.10;79.03;100955.14;1768430;81;21333;-68
2021/06/16 07:57:32;;;;;;;7.47;4.25;;;;;;;22.18;79.42;100960.56;1771658;81;21329;-71
2021/06/16 08:00:07;;;;;;;11.93;3.83;;;;;;;22.27;79.83;100963.66;1772060;79;21373;-76
2021/06/16 08:02:42;;;;;;;10.60;4.03;;;;;;;22.33;77.91;100956.67;1772366;79;22256;-70
2021/06/16 08:05:16;;;;;;;8.48;6.30;;;;;;;22.35;75.15;100959.14;1770608;81;21342;-75
2021/06/16 08:07:49;;;;;;;14.30;5.83;;;;;;;22.35;76.84;100958.57;1770722;80;21356;-69
2021/06/16 08:10:22;;;;;;;12.60;5.22;;;;;;;22.42;78.27;100953.81;1768636;81;21179;-74
2021/06/16 08:12:54;;;;;;;8.70;6.07;;;;;;;22.50;77.66;100960.11;1768709;81;21345;-76
2021/06/16 08:15:27;;;;;;;11.85;6.33;;;;;;;22.59;77.93;100958.09;1771252;80;21855;-76
2021/06/16 08:18:00;;;;;;;15.20;5.78;;;;;;;22.72;78.87;100964.16;1771849;81;21195;-71
2021/06/16 08:20:32;;;;;;;7.67;4.10;;;;;;;22.84;78.92;100962.33;1771282;80;21313;-73
2021/06/16 08:23:06;;;;;;;12.80;3.87;;;;;;;22.94;76.95;100958.31;1770414;79;21357;-75
2021/06/16 08:25:40;;;;;;;5.92;5.30;;;;;;;23.03;75.97;100960.55;1768692;81;21175;-69
2021/06/16 08:28:13;;;;;;;10.38;5.75;;;;;;;23.14;75.49;100957.02;1768381;80;21323;-74
2021/06/16 08:30:45;;;;;;;6.92;6.22;;;;;;;23.22;74.92;100963.27;1771377;81;21187;-68
2021/06/16 08:33:18;;;;;;;5.70;4.60;;;;;;;23.23;73.94;100966.95;1771824;81;21700;-69
2021/06/16 08:35:50;;;;;;;5.25;4.65;;;;;;;23.17;72.00;100960.61;1771784;79;21703;-74
2021/06/16 08:38:23;;;;;;;8.13;6.25;;;;;;;23.15;72.32;100960.66;1770722;80;21644;-69
2021/06/16 08:41:03;;;;;;;7.62;6.62;;;;;;;23.21;72.24;100969.27;1770777;80;21349;-74
2021/06/16 08:43:43;;;;;;;8.03;6.12;;;;;;;23.28;72.08;100969.60;1770828;80;21877;-69
2021/06/16 08:46:16;;;;;;;10.78;7.35;;;;;;;23.39;73.38;100983.63;1760574;81;21361;-68
2021/06/16 08:48:49;;;;;;;11.00;6.72;;;;;;;23.46;71.20;100980.53;1769661;80;21839;-74
2021/06/16 08:51:22;;;;;;;7.67;6.08;;;;;;;23.42;69.95;100991.48;1770653;80;21317;-68
2021/06/16 08:53:54;;;;;;;10.47;6.30;;;;;;;23.34;70.12;100990.93;1772072;79;21323;-73
2021/06/16 08:56:27;;;;;;;6.85;6.00;;;;;;;23.33;71.99;100990.09;1772019;80;21823;-72
2021/06/16 08:58:59;;;;;;;10.10;6.85;;;;;;;23.41;71.93;100998.33;1771850;80;21195;-70
2021/06/16 09:01:32;;;;;;;6.75;6.12;;;;;;;23.44;71.31;100994.80;1770836;81;21333;-73
2021/06/16 09:04:05;;;;;;;11.08;6.30;;;;;;;23.43;70.79;100988.88;1770550;80;21203;-69
2021/06/16 09:06:38;;;;;;;9.67;6.33;;;;;;;23.47;71.19;100992.72;1771663;80;21325;-71
2021/06/16 09:09:10;;;;;;;6.50;5.90;;;;;;;23.54;70.37;100989.58;1772052;80;21341;-73
2021/06/16 09:11:47;;;;;;;8.18;6.58;;;;;;;23.55;68.70;100994.67;1771018;80;21345;-75
2021/06/16 09:14:25;;;;;;;16.15;7.85;;;;;;;23.53;68.64;101001.28;1771172;80;21328;-70
2021/06/16 09:17:03;;;;;;;13.65;7.35;;;;;;;23.56;69.23;101012.78;1769258;81;21171;-69
2021/06/16 09:19:37;;;;;;;12.53;6.72;;;;;;;23.51;69.28;101005.87;1785381;80;21698;-69
2021/06/16 09:22:10;;;;;;;8.43;6.65;;;;;;;23.42;69.16;101004.23;1771947;80;21396;-70
2021/06/16 09:24:52;;;;;;;8.13;5.72;;;;;;;23.38;69.27;101009.75;1770017;80;21381;-69
2021/06/16 09:27:46;;;;;;;12.55;6.90;;;;;;;23.31;68.69;100995.27;1768682;81;21338;-69
2021/06/16 09:30:27;;;;;;;14.73;6.28;;;;;;;23.24;69.58;100999.78;1767346;80;21342;-72
2021/06/16 09:33:06;;;;;;;7.97;4.60;;;;;;;23.26;70.22;100996.86;1769882;79;21380;-67
2021/06/16 09:35:45;;;;;;;7.55;5.55;;;;;;;23.32;70.16;101006.85;1769710;81;21321;-69
2021/06/16 09:38:33;;;;;;;11.10;5.65;;;;;;;23.29;70.03;101016.63;1771846;79;21330;-73
2021/06/16 09:41:15;;;;;;;7.05;5.00;;;;;;;23.19;69.18;101016.39;1771441;80;21208;-71
2021/06/16 09:43:43;;;;;;;7.28;5.20;;;;;;;23.14;69.43;101016.53;1771764;80;21179;-75
2021/06/16 09:46:18;;;;;;;7.00;5.17;;;;;;;23.09;69.50;101022.37;1768467;81;21732;-69
2021/06/16 09:48:51;;;;;;;9.05;5.53;;;;;;;23.01;69.98;101019.55;1771553;80;21195;-69
2021/06/16 09:51:36;;;;;;;8.13;5.10;;;;;;;22.91;70.16;101012.83;1771606;80;21357;-74
2021/06/16 09:54:19;;;;;;;8.18;4.87;;;;;;;22.85;71.13;101015.58;1770547;80;21380;-74
2021/06/16 09:57:04;;;;;;;7.75;4.90;;;;;;;22.78;70.92;101025.98;1769784;80;21234;-75
2021/06/16 09:59:45;;;;;;;7.80;4.58;;;;;;;22.77;70.63;101026.31;1769011;81;21404;-72
2021/06/16 10:02:23;;;;;;;9.55;4.85;;;;;;;22.80;71.38;101034.16;1770298;80;21227;-70
2021/06/16 10:04:59;;;;;;;5.17;4.30;;;;;;;22.85;71.54;101024.08;1769770;80;21242;-70
2021/06/16 10:07:33;;;;;;;6.58;4.25;;;;;;;22.91;71.84;101013.64;1770663;80;21329;-68
2021/06/16 10:10:11;;;;;;;5.17;3.90;;;;;;;22.98;71.30;101013.96;1771742;81;21751;-74
2021/06/16 10:12:47;;;;;;;4.37;3.08;;;;;;;23.11;70.63;101010.70;1771626;81;21369;-69
2021/06/16 10:15:21;;;;;;;3.05;2.72;;;;;;;23.17;68.86;101008.78;1771659;80;21676;-74
2021/06/16 10:17:54;;;;;;;7.40;3.10;;;;;;;23.23;68.62;101009.46;1768777;81;21191;-72
2021/06/16 10:20:27;;;;;;;3.98;3.02;;;;;;;23.31;67.61;101012.85;1770751;80;21207;-68
2021/06/16 10:23:00;;;;;;;4.50;2.98;;;;;;;23.29;66.62;100999.61;1770598;81;21870;-70
2021/06/16 10:25:32;;;;;;;5.53;3.10;;;;;;;23.25;66.38;100997.19;1772008;81;21389;-68
2021/06/16 10:28:05;;;;;;;3.67;2.47;;;;;;;23.27;66.92;101004.77;1769361;81;21243;-72
2021/06/16 10:30:42;;;;;;;3.08;2.17;;;;;;;23.26;65.07;101004.52;1769745;80;21333;-74
2021/06/16 10:33:35;;;;;;;3.02;2.50;;;;;;;23.25;64.24;101005.70;1771839;81;21771;-71
2021/06/16 10:36:26;;;;;;;3.55;2.55;;;;;;;23.15;63.73;101009.69;1768674;80;21400;-69
2021/06/16 10:39:09;;;;;;;2.60;1.92;;;;;;;22.98;63.69;101003.23;1768912;81;21865;-68
2021/06/16 10:41:54;;;;;;;5.10;2.65;;;;;;;22.95;63.99;100993.97;1770430;80;21314;-70
2021/06/16 10:44:29;;;;;;;4.37;2.08;;;;;;;23.01;65.26;100998.29;1769134;81;21313;-74
2021/06/16 10:47:10;;;;;;;2.08;1.87;;;;;;;23.14;66.00;100990.18;1770420;81;21329;-70
2021/06/16 10:49:54;;;;;;;6.87;2.70;;;;;;;23.21;65.49;100990.52;1771229;80;21325;-75
2021/06/16 10:52:29;;;;;;;7.65;2.30;;;;;;;23.33;66.33;100989.23;1769659;80;21234;-69
2021/06/16 10:55:04;;;;;;;6.37;2.12;;;;;;;23.40;64.28;100985.33;1770522;80;21309;-74
2021/06/16 10:57:38;;;;;;;2.60;2.27;;;;;;;23.44;63.64;100984.88;1769939;79;21243;-68
2021/06/16 11:00:14;;;;;;;5.50;2.90;;;;;;;23.45;63.93;100985.11;1769230;80;21187;-69
2021/06/16 11:02:50;;;;;;;5.95;1.67;;;;;;;23.49;63.98;100985.54;1770469;80;21893;-68
2021/06/16 11:05:29;;;;;;;4.20;2.50;;;;;;;23.45;61.67;100987.95;1771430;81;21198;-70
2021/06/16 11:08:03;;;;;;;4.22;2.83;;;;;;;23.27;61.63;100975.84;1770699;81;21339;-69
2021/06/16 11:10:56;;;;;;;7.45;2.45;;;;;;;23.21;63.17;100977.77;1772514;80;21214;-75
2021/06/16 11:13:40;;;;;;;6.62;2.65;;;;;;;23.19;64.38;100977.28;1771842;80;21318;-77
2021/06/16 11:16:41;;;;;;;5.50;2.30;;;;;;;23.22;64.78;100972.37;1770548;79;21357;-73
2021/06/16 11:19:25;;;;;;;3.67;2.00;;;;;;;23.22;63.51;100970.35;1769455;80;21823;-68
2021/06/16 11:21:59;;;;;;;4.33;1.90;;;;;;;23.17;62.31;100967.69;1771619;81;21407;-69
2021/06/16 11:25:23;;;;;;;5.62;2.35;;;;;;;23.18;61.99;100960.88;1769269;81;21295;-69
2021/06/16 11:28:11;;;;;;;2.30;2.05;;;;;;;23.24;61.84;100950.18;1715248;82;21272;-69
2021/06/16 11:31:00;;;;;;;3.30;2.37;;;;;;;23.23;60.85;100947.11;1768251;81;21329;-75
2021/06/16 11:33:40;;;;;;;3.75;2.77;;;;;;;23.18;60.87;100952.95;1770474;80;21207;-72
2021/06/16 11:36:19;;;;;;;5.22;2.85;;;;;;;23.14;60.59;100947.67;1760654;81;21815;-68
2021/06/16 11:39:07;;;;;;;3.45;2.75;;;;;;;23.18;61.09;100951.53;1768611;80;21384;-74
2021/06/16 11:41:34;;;;;;;6.70;2.63;;;;;;;23.28;61.49;100949.16;1772875;80;21368;-76
2021/06/16 11:44:12;;;;;;;4.55;3.27;;;;;;;23.42;60.97;100954.62;1768111;81;21746;-70
2021/06/16 11:46:47;;;;;;;6.22;3.80;;;;;;;23.50;61.12;100960.26;1770202;80;21313;-70
2021/06/16 11:49:27;;;;;;;4.42;3.47;;;;;;;23.59;60.97;100961.64;1771056;81;21875;-75
2021/06/16 11:51:58;;;;;;;3.47;3.12;;;;;;;23.65;61.49;100963.11;1773539;80;21434;-74
2021/06/16 11:54:35;;;;;;;4.35;3.15;;;;;;;23.74;61.90;100961.90;1771969;81;21333;-69
2021/06/16 11:57:14;;;;;;;3.65;3.35;;;;;;;23.82;62.13;100958.17;1771675;81;21332;-72
2021/06/16 11:59:52;;;;;;;7.78;2.65;;;;;;;23.92;61.90;100955.56;1770097;80;21246;-73